createdAt,value
2022-10-06T00:01:45.781Z,98280.97
2022-10-06T00:03:47.126Z,98282.63
2022-10-06T00:05:48.386Z,98286.03
2022-10-06T00:07:50.071Z,98287.72
2022-10-06T00:09:51.395Z,98287.75
2022-10-06T00:11:52.824Z,98291.16
2022-10-06T00:13:54.091Z,98287.75
2022-10-06T00:15:55.398Z,98286.09
2022-10-06T00:17:56.906Z,98283.59
2022-10-06T00:19:58.179Z,98287.00
2022-10-06T00:21:59.438Z,98292.09
2022-10-06T00:24:00.700Z,98288.72
2022-10-06T00:26:01.973Z,98288.72
2022-10-06T00:28:03.367Z,98285.31
2022-10-06T00:30:04.667Z,98287.06
2022-10-06T00:32:05.968Z,98293.88
2022-10-06T00:34:07.267Z,98289.66
2022-10-06T00:36:08.750Z,98287.09
2022-10-06T00:38:10.015Z,98282.81
2022-10-06T00:40:11.331Z,98287.91
2022-10-06T00:42:12.602Z,98293.88
2022-10-06T00:44:13.906Z,98291.31
2022-10-06T00:46:15.278Z,98277.72
2022-10-06T00:48:16.579Z,98297.25
2022-10-06T00:50:17.857Z,98293.88
2022-10-06T00:52:19.225Z,98292.97
2022-10-06T00:54:20.531Z,98290.38
2022-10-06T00:56:21.815Z,98304.75
2022-10-06T00:58:23.128Z,98290.31
2022-10-06T01:00:24.395Z,98297.16
2022-10-06T01:02:26.067Z,98291.19
2022-10-06T01:04:27.386Z,98292.09
2022-10-06T01:06:28.735Z,98288.66
2022-10-06T01:08:30.541Z,98286.94
2022-10-06T01:10:32.014Z,98292.88
2022-10-06T01:12:33.511Z,98296.25
2022-10-06T01:14:34.783Z,98288.59
2022-10-06T01:16:37.598Z,98295.38
2022-10-06T01:18:38.907Z,98298.78
2022-10-06T01:20:40.208Z,98287.72
2022-10-06T01:22:41.483Z,98295.41
2022-10-06T01:24:42.773Z,98295.41
2022-10-06T01:26:44.059Z,98287.81
2022-10-06T01:28:45.468Z,98288.69
2022-10-06T01:30:50.854Z,98288.69
2022-10-06T01:32:52.234Z,98288.72
2022-10-06T01:34:53.522Z,98287.88
2022-10-06T01:36:54.807Z,98286.22
2022-10-06T01:38:56.118Z,98277.72
2022-10-06T01:40:57.410Z,98272.66
2022-10-06T01:42:58.952Z,98273.50
2022-10-06T01:45:00.215Z,98278.63
2022-10-06T01:47:01.509Z,98282.03
2022-10-06T01:49:02.810Z,98284.59
2022-10-06T01:51:04.107Z,98278.66
2022-10-06T01:53:05.383Z,98282.06
2022-10-06T01:55:06.879Z,98289.69
2022-10-06T01:57:10.991Z,98288.84
2022-10-06T01:59:12.323Z,98286.31
2022-10-06T02:01:13.732Z,98294.81
2022-10-06T02:03:15.099Z,98282.88
2022-10-06T02:05:16.619Z,98286.25
2022-10-06T02:07:17.948Z,98287.03
2022-10-06T02:09:19.235Z,98287.88
2022-10-06T02:11:20.496Z,98300.59
2022-10-06T02:13:23.239Z,98287.81
2022-10-06T02:15:25.075Z,98299.66
2022-10-06T02:17:26.362Z,98303.03
2022-10-06T02:19:27.632Z,98297.03
2022-10-06T02:21:28.899Z,98297.84
2022-10-06T02:23:30.187Z,98306.31
2022-10-06T02:25:31.491Z,98310.53
2022-10-06T02:27:32.789Z,98304.53
2022-10-06T02:29:34.115Z,98307.94
2022-10-06T02:31:35.450Z,98308.81
2022-10-06T02:33:36.770Z,98318.19
2022-10-06T02:35:38.266Z,98323.28
2022-10-06T02:37:39.992Z,98336.03
2022-10-06T02:39:41.271Z,98332.66
2022-10-06T02:41:42.583Z,98338.41
2022-10-06T02:43:43.871Z,98333.31
2022-10-06T02:45:45.135Z,98336.00
2022-10-06T02:47:46.564Z,98336.97
2022-10-06T02:49:47.910Z,98349.78
2022-10-06T02:51:49.215Z,98347.34
2022-10-06T02:53:50.543Z,98347.91
2022-10-06T02:55:52.283Z,98344.44
2022-10-06T02:57:53.559Z,98346.22
2022-10-06T02:59:55.047Z,98353.16
2022-10-06T03:01:56.432Z,98354.91
2022-10-06T03:03:57.818Z,98361.81
2022-10-06T03:05:59.106Z,98355.94
2022-10-06T03:08:00.378Z,98359.38
2022-10-06T03:10:01.696Z,98375.53
2022-10-06T03:12:03.050Z,98376.41
2022-10-06T03:14:04.375Z,98378.16
2022-10-06T03:16:05.706Z,98376.47
2022-10-06T03:18:07.023Z,98394.34
2022-10-06T03:20:08.299Z,98390.13
2022-10-06T03:22:10.561Z,98396.09
2022-10-06T03:24:11.923Z,98400.34
2022-10-06T03:26:13.281Z,98387.63
2022-10-06T03:28:15.120Z,98394.38
2022-10-06T03:30:16.421Z,98395.25
2022-10-06T03:32:18.075Z,98403.75
2022-10-06T03:34:19.396Z,98395.25
2022-10-06T03:36:20.656Z,98398.63
2022-10-06T03:38:21.988Z,98398.59
2022-10-06T03:40:23.286Z,98388.41
2022-10-06T03:42:24.555Z,98386.75
2022-10-06T03:44:25.872Z,98388.41
2022-10-06T03:46:27.202Z,98387.59
2022-10-06T03:48:28.821Z,98371.44
2022-10-06T03:50:30.259Z,98366.34
2022-10-06T03:52:31.523Z,98363.81
2022-10-06T03:54:32.849Z,98358.72
2022-10-06T03:56:34.133Z,98357.03
2022-10-06T03:58:35.426Z,98373.19
2022-10-06T04:00:36.801Z,98384.19
2022-10-06T04:02:38.095Z,98383.34
2022-10-06T04:04:39.448Z,98393.56
2022-10-06T04:06:40.795Z,98396.13
2022-10-06T04:08:42.279Z,98406.31
2022-10-06T04:10:43.556Z,98413.13
2022-10-06T04:12:44.815Z,98417.41
2022-10-06T04:14:46.083Z,98414.03
2022-10-06T04:16:47.485Z,98410.66
2022-10-06T04:18:48.802Z,98416.59
2022-10-06T04:20:50.064Z,98419.19
2022-10-06T04:22:51.829Z,98423.41
2022-10-06T04:24:53.198Z,98431.94
2022-10-06T04:27:14.418Z,98430.22
2022-10-06T04:29:15.691Z,98437.88
2022-10-06T04:31:17.155Z,98436.16
2022-10-06T04:33:19.879Z,98440.41
2022-10-06T04:35:21.140Z,98441.25
2022-10-06T04:37:22.414Z,98435.28
2022-10-06T04:39:23.692Z,98439.53
2022-10-06T04:41:24.982Z,98443.78
2022-10-06T04:43:28.075Z,98443.78
2022-10-06T04:45:29.413Z,98449.72
2022-10-06T04:47:30.787Z,98445.50
2022-10-06T04:49:32.119Z,98445.47
2022-10-06T04:51:33.431Z,98447.19
2022-10-06T04:53:34.751Z,98457.38
2022-10-06T04:55:36.044Z,98459.91
2022-10-06T04:57:37.312Z,98465.00
2022-10-06T04:59:59.492Z,98456.53
2022-10-06T05:02:06.996Z,98459.91
2022-10-06T05:04:08.347Z,98461.63
2022-10-06T05:06:09.705Z,98464.19
2022-10-06T05:08:11.069Z,98474.38
2022-10-06T05:10:12.344Z,98476.06
2022-10-06T05:12:13.642Z,98475.22
2022-10-06T05:14:14.938Z,98472.66
2022-10-06T05:16:16.300Z,98478.59
2022-10-06T05:18:17.653Z,98482.84
2022-10-06T05:20:22.786Z,98482.84
2022-10-06T05:22:24.051Z,98485.38
2022-10-06T05:24:25.384Z,98483.72
2022-10-06T05:26:26.712Z,98488.81
2022-10-06T05:28:28.421Z,98494.75
2022-10-06T05:30:29.931Z,98489.66
2022-10-06T05:32:35.783Z,98502.44
2022-10-06T05:34:37.413Z,98515.16
2022-10-06T05:36:39.023Z,98516.00
2022-10-06T05:38:40.340Z,98513.44
2022-10-06T05:40:41.614Z,98516.00
2022-10-06T05:42:42.931Z,98510.06
2022-10-06T05:44:44.243Z,98537.25
2022-10-06T05:46:45.514Z,98522.81
2022-10-06T05:48:47.742Z,98521.09
2022-10-06T05:50:49.241Z,98521.09
2022-10-06T05:52:51.099Z,98527.91
2022-10-06T05:54:52.363Z,98388.50
2022-10-06T05:56:53.758Z,98536.41
2022-10-06T05:58:55.029Z,98535.53
2022-10-06T06:00:56.344Z,98538.94
2022-10-06T06:02:58.252Z,98516.16
2022-10-06T06:04:59.588Z,98555.94
2022-10-06T06:07:00.861Z,98562.72
2022-10-06T06:09:02.234Z,98564.44
2022-10-06T06:11:03.532Z,98562.75
2022-10-06T06:13:04.856Z,98567.84
2022-10-06T06:15:25.035Z,98568.72
2022-10-06T06:17:26.355Z,98575.47
2022-10-06T06:19:29.211Z,98575.47
2022-10-06T06:21:30.785Z,98579.72
2022-10-06T06:23:32.093Z,98587.38
2022-10-06T06:25:33.413Z,98591.66
2022-10-06T06:27:35.680Z,98603.53
2022-10-06T06:29:37.339Z,98601.84
2022-10-06T06:31:38.756Z,98610.34
2022-10-06T06:33:40.077Z,98611.19
2022-10-06T06:35:41.894Z,98614.59
2022-10-06T06:37:43.266Z,98611.22
2022-10-06T06:39:44.539Z,98624.81
2022-10-06T06:41:46.156Z,98626.53
2022-10-06T06:43:47.521Z,98635.88
2022-10-06T06:45:48.820Z,98631.63
2022-10-06T06:47:50.823Z,98635.03
2022-10-06T06:49:52.142Z,98642.72
2022-10-06T06:51:54.495Z,98641.00
2022-10-06T06:53:55.927Z,98640.16
2022-10-06T06:55:58.015Z,98636.75
2022-10-06T06:57:59.361Z,98646.97
2022-10-06T07:00:05.202Z,98656.28
2022-10-06T07:02:06.509Z,98658.00
2022-10-06T07:04:07.875Z,98657.13
2022-10-06T07:06:09.470Z,98665.59
2022-10-06T07:08:11.826Z,98673.22
2022-10-06T07:10:13.143Z,98672.41
2022-10-06T07:12:14.426Z,98682.59
2022-10-06T07:14:15.710Z,98686.84
2022-10-06T07:16:35.625Z,98704.69
2022-10-06T07:18:55.487Z,98715.72
2022-10-06T07:21:15.298Z,98728.50
2022-10-06T07:23:35.058Z,98719.16
2022-10-06T07:25:36.804Z,98742.09
2022-10-06T07:27:38.083Z,98737.81
2022-10-06T07:29:39.414Z,98750.56
2022-10-06T07:31:43.718Z,98753.13
2022-10-06T07:33:45.042Z,98761.63
2022-10-06T07:35:46.531Z,98767.53
2022-10-06T07:37:47.806Z,98769.25
2022-10-06T07:39:49.709Z,98774.34
2022-10-06T07:41:51.012Z,98780.28
2022-10-06T07:43:55.329Z,98790.47
2022-10-06T07:45:57.309Z,98787.94
2022-10-06T07:47:58.919Z,98787.09
2022-10-06T07:50:00.243Z,98803.22
2022-10-06T07:52:02.548Z,98808.31
2022-10-06T07:54:03.818Z,98825.34
2022-10-06T07:56:05.270Z,98832.09
2022-10-06T07:58:09.323Z,98834.66
2022-10-06T08:00:10.602Z,98838.06
2022-10-06T08:02:11.959Z,98857.59
2022-10-06T08:04:13.371Z,98867.78
2022-10-06T08:06:17.350Z,98861.84
2022-10-06T08:08:18.790Z,98872.03
2022-10-06T08:10:20.848Z,98883.09
2022-10-06T08:12:34.668Z,98877.97
2022-10-06T08:14:35.988Z,98886.50
2022-10-06T08:16:37.311Z,98881.41
2022-10-06T08:18:46.601Z,98888.19
2022-10-06T08:20:48.467Z,98897.56
2022-10-06T08:22:49.839Z,98889.91
2022-10-06T08:25:08.298Z,98897.56
2022-10-06T08:27:09.879Z,98913.69
2022-10-06T08:29:11.596Z,98911.16
2022-10-06T08:31:13.186Z,98918.81
2022-10-06T08:33:14.555Z,98915.41
2022-10-06T08:35:16.843Z,98907.75
2022-10-06T08:37:20.940Z,98917.13
2022-10-06T08:39:22.322Z,98922.19
2022-10-06T08:41:23.657Z,98912.00
2022-10-06T08:43:25.007Z,98918.78
2022-10-06T08:45:26.282Z,98938.31
2022-10-06T08:47:27.648Z,98938.31
2022-10-06T08:49:31.235Z,98953.63
2022-10-06T08:51:32.506Z,98932.38
2022-10-06T08:53:33.835Z,98931.53
2022-10-06T08:55:35.359Z,98932.38
2022-10-06T08:57:36.700Z,98935.78
2022-10-06T08:59:38.012Z,98935.75
2022-10-06T09:01:39.437Z,98940.03
2022-10-06T09:03:40.991Z,98944.28
2022-10-06T09:05:42.316Z,98945.13
2022-10-06T09:07:43.907Z,98947.69
2022-10-06T09:09:45.631Z,98947.69
2022-10-06T09:11:46.946Z,98944.25
2022-10-06T09:13:52.230Z,98936.63
2022-10-06T09:15:55.029Z,98943.41
2022-10-06T09:17:56.350Z,98950.22
2022-10-06T09:19:58.078Z,98949.38
2022-10-06T09:22:00.762Z,98955.31
2022-10-06T09:24:03.825Z,98955.31
2022-10-06T09:26:05.154Z,98953.59
2022-10-06T09:28:06.466Z,98957.00
2022-10-06T09:30:08.596Z,98959.53
2022-10-06T09:32:11.023Z,98955.31
2022-10-06T09:34:12.771Z,98963.84
2022-10-06T09:36:14.930Z,98969.78
2022-10-06T09:38:16.205Z,98974.84
2022-10-06T09:40:18.410Z,98968.94
2022-10-06T09:42:19.783Z,98976.56
2022-10-06T09:44:21.103Z,98977.41
2022-10-06T09:46:22.428Z,98978.28
2022-10-06T09:48:25.086Z,98975.72
2022-10-06T09:50:27.639Z,98986.78
2022-10-06T09:52:28.946Z,98985.91
2022-10-06T09:54:30.323Z,98985.91
2022-10-06T09:56:31.609Z,98992.69
2022-10-06T09:58:34.792Z,98982.50
2022-10-06T10:00:36.217Z,98984.19
2022-10-06T10:02:37.678Z,98998.63
2022-10-06T10:04:38.986Z,98990.16
2022-10-06T10:06:41.731Z,98996.09
2022-10-06T10:08:43.046Z,98991.00
2022-10-06T10:10:44.319Z,98985.91
2022-10-06T10:12:45.621Z,98991.81
2022-10-06T10:14:47.444Z,98990.97
2022-10-06T10:16:53.001Z,98991.81
2022-10-06T10:18:55.153Z,98996.91
2022-10-06T10:20:57.504Z,98998.59
2022-10-06T10:22:59.496Z,98999.47
2022-10-06T10:25:00.769Z,98994.38
2022-10-06T10:27:02.710Z,99007.09
2022-10-06T10:29:04.039Z,99004.59
2022-10-06T10:31:05.702Z,99001.19
2022-10-06T10:33:07.072Z,98999.47
2022-10-06T10:35:08.356Z,98999.50
2022-10-06T10:37:10.081Z,99002.88
2022-10-06T10:39:11.602Z,99006.25
2022-10-06T10:41:13.317Z,99004.53
2022-10-06T10:43:14.596Z,98997.72
2022-10-06T10:45:16.300Z,99006.25
2022-10-06T10:47:17.588Z,99017.28
2022-10-06T10:49:18.932Z,99013.88
2022-10-06T10:51:20.282Z,99018.09
2022-10-06T10:53:21.656Z,99018.16
2022-10-06T10:55:23.322Z,99014.75
2022-10-06T10:57:25.169Z,99025.81
2022-10-06T10:59:26.446Z,99023.28
2022-10-06T11:01:27.727Z,99030.94
2022-10-06T11:03:28.995Z,99034.31
2022-10-06T11:05:32.156Z,99035.16
2022-10-06T11:07:33.432Z,99027.53
2022-10-06T11:09:34.719Z,99035.19
2022-10-06T11:11:36.718Z,99033.47
2022-10-06T11:13:38.026Z,99032.59
2022-10-06T11:15:39.292Z,99024.09
2022-10-06T11:17:44.241Z,99031.72
2022-10-06T11:19:45.727Z,99028.31
2022-10-06T11:21:46.999Z,99025.72
2022-10-06T11:23:48.311Z,99029.97
2022-10-06T11:25:49.593Z,99029.06
2022-10-06T11:27:50.955Z,98909.44
2022-10-06T11:29:52.488Z,99028.25
2022-10-06T11:31:54.669Z,99028.25
2022-10-06T11:33:56.180Z,99020.59
2022-10-06T11:35:57.485Z,99022.31
2022-10-06T11:37:59.749Z,99029.09
2022-10-06T11:40:01.382Z,99023.16
2022-10-06T11:42:02.993Z,99026.56
2022-10-06T11:44:04.470Z,99029.06
2022-10-06T11:46:05.918Z,99023.97
2022-10-06T11:48:07.299Z,99027.38
2022-10-06T11:50:08.565Z,99030.81
2022-10-06T11:52:10.042Z,99023.16
2022-10-06T11:54:11.303Z,99039.31
2022-10-06T11:56:12.581Z,99035.06
2022-10-06T12:00:35.374Z,99030.78
2022-10-06T12:02:36.828Z,99027.38
2022-10-06T12:04:38.163Z,99029.06
2022-10-06T12:06:39.427Z,99037.56
2022-10-06T12:08:41.544Z,99025.66
2022-10-06T12:10:42.822Z,99024.78
2022-10-06T12:12:45.901Z,99023.91
2022-10-06T12:17:19.092Z,99024.78
2022-10-06T12:19:21.076Z,99024.72
2022-10-06T12:21:24.200Z,99028.97
2022-10-06T12:23:25.518Z,99022.97
2022-10-06T12:25:27.932Z,99024.69
2022-10-06T12:27:29.426Z,99019.53
2022-10-06T12:29:30.707Z,99035.38
2022-10-06T12:31:31.976Z,99032.81
2022-10-06T12:33:33.271Z,99035.56
2022-10-06T12:35:34.611Z,99035.59
2022-10-06T12:37:36.061Z,99038.19
2022-10-06T12:39:37.396Z,99045.00
2022-10-06T12:41:38.685Z,99032.25
2022-10-06T12:43:39.959Z,99046.75
2022-10-06T12:45:45.779Z,99038.28
2022-10-06T12:47:47.464Z,99040.06
2022-10-06T12:49:48.781Z,99038.38
2022-10-06T12:51:51.352Z,99043.50
2022-10-06T12:53:53.644Z,99044.94
2022-10-06T12:55:54.942Z,99035.97
2022-10-06T12:57:56.278Z,99039.97
2022-10-06T12:59:58.157Z,99041.63
2022-10-06T13:01:59.568Z,99032.72
2022-10-06T13:04:00.979Z,99042.03
2022-10-06T13:06:04.998Z,99037.47
2022-10-06T13:08:06.366Z,99037.84
2022-10-06T13:10:07.677Z,99043.44
2022-10-06T13:12:08.982Z,99042.78
2022-10-06T13:14:10.307Z,99036.09
2022-10-06T13:16:12.527Z,99038.66
2022-10-06T13:18:13.887Z,99037.00
2022-10-06T13:20:15.178Z,99041.22
2022-10-06T13:22:16.459Z,99044.66
2022-10-06T13:24:19.402Z,99035.31
2022-10-06T13:26:21.782Z,99039.59
2022-10-06T13:28:23.319Z,99048.97
2022-10-06T13:30:24.636Z,98909.91
2022-10-06T13:32:25.934Z,99041.34
2022-10-06T13:34:27.206Z,99057.53
2022-10-06T13:36:28.474Z,99056.69
2022-10-06T13:38:34.863Z,99055.81
2022-10-06T13:40:44.995Z,99060.06
2022-10-06T13:42:46.828Z,99058.41
2022-10-06T13:44:49.515Z,99056.69
2022-10-06T13:46:50.867Z,99055.06
2022-10-06T13:48:52.389Z,99052.59
2022-10-06T13:50:53.717Z,99053.47
2022-10-06T13:52:55.220Z,99058.66
2022-10-06T13:54:56.792Z,99056.97
2022-10-06T13:56:58.605Z,99063.81
2022-10-06T13:58:59.879Z,99054.50
2022-10-06T14:01:03.499Z,99062.16
2022-10-06T14:03:04.940Z,99064.69
2022-10-06T14:05:06.311Z,99067.25
2022-10-06T14:07:07.582Z,99063.00
2022-10-06T14:09:08.879Z,99063.84
2022-10-06T14:11:10.160Z,99064.72
2022-10-06T14:13:11.492Z,99063.03
2022-10-06T14:15:12.787Z,99060.47
2022-10-06T14:17:14.060Z,99068.13
2022-10-06T14:19:15.739Z,99066.44
2022-10-06T14:21:17.167Z,99063.06
2022-10-06T14:23:18.528Z,99073.28
2022-10-06T14:25:19.835Z,99071.53
2022-10-06T14:27:21.141Z,99068.09
2022-10-06T14:29:22.457Z,99074.88
2022-10-06T14:31:23.866Z,99071.44
2022-10-06T14:33:25.222Z,99073.13
2022-10-06T14:35:26.514Z,99075.63
2022-10-06T14:37:27.814Z,99081.66
2022-10-06T14:39:29.111Z,99082.53
2022-10-06T14:41:30.436Z,99084.25
2022-10-06T14:43:31.706Z,99074.03
2022-10-06T14:45:36.103Z,99079.16
2022-10-06T14:47:37.374Z,99086.00
2022-10-06T14:49:38.695Z,99073.25
2022-10-06T14:51:40.027Z,99080.06
2022-10-06T14:53:41.433Z,99083.47
2022-10-06T14:55:42.763Z,99085.16
2022-10-06T14:57:44.259Z,99079.25
2022-10-06T14:59:45.536Z,99082.63
2022-10-06T15:01:46.877Z,99089.47
2022-10-06T15:03:49.357Z,99079.25
2022-10-06T15:06:29.467Z,99087.78
2022-10-06T15:08:32.624Z,99082.69
2022-10-06T15:10:33.904Z,99085.25
2022-10-06T15:12:35.347Z,99084.41
2022-10-06T15:14:39.634Z,99080.97
2022-10-06T15:16:42.486Z,99081.00
2022-10-06T15:18:43.790Z,99085.25
2022-10-06T15:20:45.288Z,99084.41
2022-10-06T15:22:46.564Z,99086.13
2022-10-06T15:24:50.380Z,99094.63
2022-10-06T15:27:10.318Z,99089.53
2022-10-06T15:29:11.590Z,99097.19
2022-10-06T15:31:12.953Z,99101.44
2022-10-06T15:33:14.319Z,99096.34
2022-10-06T15:35:15.603Z,99097.19
2022-10-06T15:37:19.932Z,99097.22
2022-10-06T15:39:21.453Z,99093.78
2022-10-06T15:41:22.767Z,99092.09
2022-10-06T15:43:44.174Z,99096.34
2022-10-06T15:45:45.431Z,99097.19
2022-10-06T15:47:47.012Z,99097.19
2022-10-06T15:49:49.305Z,99095.47
2022-10-06T15:51:50.602Z,99092.94
2022-10-06T15:53:51.883Z,98973.13
2022-10-06T15:55:53.814Z,99096.31
2022-10-06T15:57:55.760Z,99097.19
2022-10-06T15:59:57.116Z,99101.44
2022-10-06T16:02:00.580Z,99106.53
2022-10-06T16:04:08.278Z,99099.75
2022-10-06T16:06:16.588Z,99095.44
2022-10-06T16:08:17.946Z,99092.56
2022-10-06T16:10:19.242Z,99099.09
2022-10-06T16:12:20.569Z,99099.88
2022-10-06T16:14:22.048Z,99091.28
2022-10-06T16:16:23.348Z,99100.53
2022-10-06T16:18:24.706Z,99107.53
2022-10-06T16:20:25.971Z,99102.47
2022-10-06T16:22:27.237Z,99098.16
2022-10-06T16:24:28.591Z,99103.97
2022-10-06T16:26:30.102Z,99106.50
2022-10-06T16:28:31.401Z,99110.25
2022-10-06T16:30:32.765Z,99115.59
2022-10-06T16:32:34.092Z,99119.16
2022-10-06T16:34:35.366Z,99120.03
2022-10-06T16:36:39.510Z,99119.25
2022-10-06T16:38:40.851Z,99120.97
2022-10-06T16:40:42.308Z,99120.09
2022-10-06T16:42:45.051Z,99126.06
2022-10-06T16:44:46.430Z,99120.13
2022-10-06T16:46:47.777Z,99129.47
2022-10-06T16:48:49.123Z,99128.63
2022-10-06T16:50:50.419Z,99126.91
2022-10-06T16:52:51.864Z,99130.31
2022-10-06T16:54:53.141Z,99128.63
2022-10-06T16:56:55.302Z,99140.53
2022-10-06T16:58:56.590Z,99137.97
2022-10-06T17:00:57.970Z,99146.47
2022-10-06T17:02:59.293Z,99150.72
2022-10-06T17:05:00.640Z,99151.59
2022-10-06T17:07:02.182Z,99154.13
2022-10-06T17:09:03.514Z,99152.41
2022-10-06T17:11:04.950Z,99154.16
2022-10-06T17:13:06.361Z,99154.16
2022-10-06T17:15:07.675Z,99159.25
2022-10-06T17:17:09.026Z,99156.50
2022-10-06T17:19:10.294Z,99153.97
2022-10-06T17:21:32.352Z,99153.22
2022-10-06T17:23:33.069Z,99159.03
2022-10-06T17:25:34.408Z,99156.44
2022-10-06T17:27:41.850Z,99158.13
2022-10-06T17:29:44.894Z,99159.81
2022-10-06T17:31:46.300Z,99162.25
2022-10-06T17:33:47.648Z,99169.03
2022-10-06T17:35:49.575Z,99153.69
2022-10-06T17:37:50.884Z,99161.38
2022-10-06T17:39:52.171Z,99157.94
2022-10-06T17:41:53.677Z,99165.63
2022-10-06T17:43:54.956Z,99157.94
2022-10-06T17:45:56.280Z,99161.50
2022-10-06T17:47:58.082Z,99170.09
2022-10-06T17:50:00.488Z,99171.88
2022-10-06T17:52:02.099Z,99171.00
2022-10-06T17:54:03.709Z,99171.44
2022-10-06T17:56:06.379Z,99164.72
2022-10-06T17:58:08.498Z,99096.00
2022-10-06T18:00:09.954Z,99159.59
2022-10-06T18:02:13.449Z,99157.88
2022-10-06T18:04:18.360Z,99172.38
2022-10-06T18:06:19.682Z,99168.97
2022-10-06T18:08:23.623Z,99165.53
2022-10-06T18:10:43.769Z,99173.97
2022-10-06T18:12:45.349Z,99171.50
2022-10-06T18:14:48.412Z,99171.75
2022-10-06T18:16:55.737Z,99170.09
2022-10-06T18:19:01.946Z,99176.97
2022-10-06T18:21:04.021Z,99172.72
2022-10-06T18:23:05.295Z,99175.28
2022-10-06T18:25:06.605Z,99174.44
2022-10-06T18:27:08.227Z,99172.75
2022-10-06T18:29:10.737Z,99173.63
2022-10-06T18:31:12.094Z,99174.44
2022-10-06T18:36:06.743Z,99188.94
2022-10-06T18:37:56.770Z,99182.97
2022-10-06T18:39:58.117Z,99172.78
2022-10-06T18:42:02.848Z,99172.78
2022-10-06T18:44:07.263Z,99180.41
2022-10-06T18:46:27.370Z,99183.00
2022-10-06T18:48:47.119Z,99182.13
2022-10-06T18:50:48.384Z,99172.81
2022-10-06T18:52:49.668Z,99180.50
2022-10-06T18:54:50.929Z,99181.25
2022-10-06T18:56:52.310Z,99183.72
2022-10-06T18:58:53.651Z,99179.34
2022-10-06T19:00:55.997Z,99186.94
2022-10-06T19:02:57.382Z,99184.34
2022-10-06T19:04:58.901Z,99188.63
2022-10-06T19:07:00.237Z,99184.13
2022-10-06T19:09:01.811Z,99180.78
2022-10-06T19:11:21.486Z,99189.38
2022-10-06T19:13:24.308Z,99189.34
2022-10-06T19:15:25.622Z,99187.50
2022-10-06T19:17:26.900Z,99190.91
2022-10-06T19:19:28.214Z,99191.88
2022-10-06T19:21:31.436Z,99179.09
2022-10-06T19:23:33.994Z,99182.47
2022-10-06T19:25:35.603Z,99177.50
2022-10-06T19:27:37.026Z,99189.59
2022-10-06T19:29:38.371Z,99187.69
2022-10-06T19:31:41.396Z,99181.34
2022-10-06T19:33:43.301Z,99187.53
2022-10-06T19:35:44.795Z,99187.50
2022-10-06T19:37:46.393Z,99191.81
2022-10-06T19:39:50.108Z,99184.16
2022-10-06T19:42:10.162Z,99195.19
2022-10-06T19:44:11.460Z,99179.75
2022-10-06T19:46:12.884Z,99193.41
2022-10-06T19:48:14.224Z,99186.53
2022-10-06T19:50:16.258Z,99189.97
2022-10-06T19:52:18.559Z,99201.78
2022-10-06T19:54:19.928Z,99199.91
2022-10-06T19:56:21.328Z,99194.91
2022-10-06T19:58:22.990Z,99193.91
2022-10-06T20:00:24.490Z,99197.41
2022-10-06T20:02:25.843Z,99192.38
2022-10-06T20:04:27.206Z,99205.63
2022-10-06T20:06:30.505Z,99198.28
2022-10-06T20:08:31.782Z,99196.69
2022-10-06T20:10:34.561Z,99209.38
2022-10-06T20:12:35.956Z,99204.22
2022-10-06T20:14:37.443Z,99198.25
2022-10-06T20:16:40.906Z,99205.88
2022-10-06T20:18:42.268Z,99203.34
2022-10-06T20:20:43.536Z,99199.94
2022-10-06T20:22:45.482Z,99204.19
2022-10-06T20:24:47.788Z,99205.91
2022-10-06T20:26:49.058Z,99079.31
2022-10-06T20:28:50.395Z,99199.09
2022-10-06T20:30:51.932Z,99206.78
2022-10-06T20:32:53.611Z,99205.06
2022-10-06T20:34:54.882Z,99200.81
2022-10-06T20:36:59.662Z,99204.25
2022-10-06T20:39:19.716Z,99207.63
2022-10-06T20:41:21.011Z,99201.66
2022-10-06T20:43:23.394Z,99202.50
2022-10-06T20:45:24.695Z,99210.19
2022-10-06T20:47:25.961Z,99208.47
2022-10-06T20:49:27.299Z,99211.03
2022-10-06T20:51:29.383Z,99211.88
2022-10-06T20:53:33.802Z,99208.50
2022-10-06T20:55:35.298Z,99206.78
2022-10-06T20:57:36.899Z,99209.31
2022-10-06T20:59:38.233Z,99200.81
2022-10-06T21:01:42.529Z,99209.34
2022-10-06T21:03:44.283Z,99199.16
2022-10-06T21:05:45.679Z,99198.31
2022-10-06T21:07:47.325Z,99198.31
2022-10-06T21:09:52.010Z,99201.72
2022-10-06T21:11:53.646Z,99200.00
2022-10-06T21:13:55.237Z,99200.88
2022-10-06T21:15:56.554Z,99196.66
2022-10-06T21:17:57.898Z,99200.03
2022-10-06T21:19:59.237Z,99202.59
2022-10-06T21:22:00.564Z,99195.81
2022-10-06T21:24:01.846Z,99194.09
2022-10-06T21:26:03.201Z,99198.34
2022-10-06T21:28:04.678Z,99194.97
2022-10-06T21:30:05.987Z,99189.00
2022-10-06T21:32:10.052Z,99188.16
2022-10-06T21:34:11.365Z,99181.34
2022-10-06T21:36:15.534Z,99184.75
2022-10-06T21:38:17.162Z,99178.81
2022-10-06T21:40:18.469Z,99177.94
2022-10-06T21:42:19.750Z,99182.19
2022-10-06T21:44:21.080Z,99196.66
2022-10-06T21:46:28.409Z,99174.53
2022-10-06T21:48:30.212Z,99169.44
2022-10-06T21:50:31.485Z,99172.84
2022-10-06T21:52:33.186Z,99172.84
2022-10-06T21:54:34.549Z,99167.75
2022-10-06T21:56:35.882Z,99164.31
2022-10-06T21:58:37.167Z,99167.72
2022-10-06T22:00:38.459Z,99169.44
2022-10-06T22:02:40.198Z,99166.88
2022-10-06T22:04:41.799Z,99166.03
2022-10-06T22:06:43.120Z,99164.31
2022-10-06T22:08:44.458Z,99166.03
2022-10-06T22:10:45.766Z,99166.84
2022-10-06T22:12:47.085Z,99172.84
2022-10-06T22:14:48.406Z,99165.16
2022-10-06T22:16:49.750Z,99166.00
2022-10-06T22:18:51.038Z,99177.91
2022-10-06T22:20:52.342Z,99163.47
2022-10-06T22:22:53.607Z,99167.72
2022-10-06T22:24:54.925Z,99169.41
2022-10-06T22:26:58.800Z,99166.03
2022-10-06T22:29:00.078Z,99166.88
2022-10-06T22:31:01.391Z,99156.66
2022-10-06T22:33:02.727Z,99159.22
2022-10-06T22:35:04.082Z,99167.69
2022-10-06T22:37:05.419Z,99166.00
2022-10-06T22:39:06.698Z,99158.34
2022-10-06T22:41:08.182Z,99164.28
2022-10-06T22:43:10.225Z,99157.47
2022-10-06T22:45:11.543Z,99157.47
2022-10-06T22:47:12.866Z,99167.69
2022-10-06T22:49:14.375Z,99162.59
2022-10-06T22:51:15.642Z,99162.59
2022-10-06T22:53:16.930Z,99168.56
2022-10-06T22:55:18.259Z,99161.75
2022-10-06T22:57:19.521Z,99153.25
2022-10-06T22:59:20.858Z,99152.41
2022-10-06T23:01:22.182Z,99155.81
2022-10-06T23:03:23.515Z,99150.69
2022-10-06T23:05:24.886Z,99149.84
2022-10-06T23:07:26.208Z,99143.03
2022-10-06T23:09:27.490Z,99143.03
2022-10-06T23:11:28.887Z,99143.06
2022-10-06T23:13:30.245Z,99145.59
2022-10-06T23:15:31.531Z,99142.19
2022-10-06T23:17:32.841Z,99139.63
2022-10-06T23:19:34.115Z,99138.78
2022-10-06T23:21:36.953Z,99144.75
2022-10-06T23:23:38.469Z,99146.44
2022-10-06T23:25:39.803Z,99143.03
2022-10-06T23:27:41.258Z,99145.59
2022-10-06T23:29:42.698Z,99140.50
2022-10-06T23:31:44.064Z,99149.03
2022-10-06T23:33:45.323Z,99139.66
2022-10-06T23:35:46.590Z,99148.16
2022-10-06T23:37:47.909Z,99147.31
2022-10-06T23:39:49.166Z,99176.22
2022-10-06T23:41:50.609Z,99145.59
2022-10-06T23:43:52.245Z,99149.84
2022-10-06T23:45:53.566Z,99144.72
2022-10-06T23:47:54.887Z,99149.84
2022-10-06T23:49:56.218Z,99138.78
2022-10-06T23:51:57.554Z,99141.31
2022-10-06T23:53:58.865Z,99143.91
2022-10-06T23:56:00.195Z,99143.91
2022-10-06T23:58:01.518Z,99148.97
